createdAt,value
2018-06-24T00:00:43.111Z,16.94
2018-06-24T00:03:11.817Z,16.92
2018-06-24T00:05:40.362Z,16.88
2018-06-24T00:08:09.282Z,16.86
2018-06-24T00:10:38.554Z,16.80
2018-06-24T00:13:08.080Z,16.67
2018-06-24T00:15:37.766Z,16.62
2018-06-24T00:18:06.405Z,16.72
2018-06-24T00:20:35.216Z,16.67
2018-06-24T00:23:06.364Z,16.65
2018-06-24T00:25:35.592Z,16.45
2018-06-24T00:28:05.215Z,16.29
2018-06-24T00:30:33.775Z,16.32
2018-06-24T00:33:02.364Z,16.11
2018-06-24T00:35:31.257Z,16.11
2018-06-24T00:38:00.701Z,16.06
2018-06-24T00:40:29.268Z,16.13
2018-06-24T00:42:58.605Z,16.05
2018-06-24T00:45:27.099Z,16.06
2018-06-24T00:47:57.202Z,16.09
2018-06-24T00:50:25.809Z,16.05
2018-06-24T00:52:55.118Z,16.05
2018-06-24T00:55:24.656Z,16.03
2018-06-24T00:57:53.225Z,16.03
2018-06-24T01:00:22.399Z,15.87
2018-06-24T01:02:50.934Z,15.80
2018-06-24T01:05:19.570Z,15.71
2018-06-24T01:07:48.067Z,15.77
2018-06-24T01:10:17.540Z,15.72
2018-06-24T01:12:46.186Z,15.78
2018-06-24T01:15:15.414Z,15.72
2018-06-24T01:17:44.381Z,15.66
2018-06-24T01:20:12.910Z,15.62
2018-06-24T01:22:42.229Z,15.69
2018-06-24T01:25:11.815Z,15.61
2018-06-24T01:27:40.646Z,15.64
2018-06-24T01:30:10.004Z,15.56
2018-06-24T01:32:38.599Z,15.46
2018-06-24T01:35:07.795Z,15.60
2018-06-24T01:37:36.409Z,15.54
2018-06-24T01:40:05.280Z,15.68
2018-06-24T01:42:34.293Z,15.36
2018-06-24T01:45:02.819Z,15.50
2018-06-24T01:47:32.032Z,15.44
2018-06-24T01:50:00.647Z,15.68
2018-06-24T01:52:31.191Z,15.48
2018-06-24T01:55:00.010Z,15.29
2018-06-24T01:57:29.236Z,15.49
2018-06-24T01:59:57.849Z,15.62
2018-06-24T02:02:26.695Z,15.74
2018-06-24T02:04:55.961Z,15.36
2018-06-24T02:07:24.495Z,15.65
2018-06-24T02:09:53.278Z,15.26
2018-06-24T02:12:22.541Z,15.64
2018-06-24T02:14:52.503Z,15.68
2018-06-24T02:17:21.892Z,15.86
2018-06-24T02:19:50.332Z,15.92
2018-06-24T02:22:19.418Z,15.87
2018-06-24T02:24:48.931Z,15.85
2018-06-24T02:27:17.957Z,15.80
2018-06-24T02:29:47.710Z,15.60
2018-06-24T02:32:16.311Z,15.51
2018-06-24T02:34:44.896Z,15.46
2018-06-24T02:37:13.554Z,15.40
2018-06-24T02:39:42.903Z,15.34
2018-06-24T02:42:12.142Z,15.34
2018-06-24T02:44:41.066Z,15.29
2018-06-24T02:47:11.487Z,15.28
2018-06-24T02:49:42.063Z,15.27
2018-06-24T02:52:11.322Z,15.19
2018-06-24T02:54:40.943Z,15.18
2018-06-24T02:57:11.192Z,15.17
2018-06-24T02:59:40.694Z,15.21
2018-06-24T03:02:10.132Z,15.24
2018-06-24T03:04:39.194Z,15.20
2018-06-24T03:07:07.757Z,15.21
2018-06-24T03:09:37.792Z,15.23
2018-06-24T03:12:06.781Z,15.24
2018-06-24T03:14:35.306Z,15.29
2018-06-24T03:17:04.422Z,15.20
2018-06-24T03:19:33.386Z,15.21
2018-06-24T03:22:02.177Z,15.21
2018-06-24T03:24:31.530Z,15.18
2018-06-24T03:27:00.974Z,15.23
2018-06-24T03:29:29.537Z,15.18
2018-06-24T03:31:58.643Z,15.16
2018-06-24T03:34:27.208Z,15.14
2018-06-24T03:36:57.792Z,15.08
2018-06-24T03:39:26.338Z,15.06
2018-06-24T03:41:54.916Z,15.18
2018-06-24T03:44:24.390Z,15.19
2018-06-24T03:46:53.470Z,15.27
2018-06-24T03:49:22.248Z,15.27
2018-06-24T03:51:51.668Z,15.32
2018-06-24T03:54:22.246Z,15.29
2018-06-24T03:56:51.282Z,15.31
2018-06-24T03:59:19.911Z,15.39
2018-06-24T04:01:48.730Z,15.44
2018-06-24T04:04:18.543Z,15.47
2018-06-24T04:06:47.640Z,15.50
2018-06-24T04:09:17.302Z,15.49
2018-06-24T04:11:46.463Z,15.51
2018-06-24T04:14:15.056Z,15.52
2018-06-24T04:16:43.554Z,15.53
2018-06-24T04:19:12.624Z,15.46
2018-06-24T04:21:41.861Z,15.49
2018-06-24T04:24:10.774Z,15.61
2018-06-24T04:26:41.046Z,15.67
2018-06-24T04:29:11.696Z,15.78
2018-06-24T04:31:42.840Z,15.83
2018-06-24T04:34:11.360Z,15.70
2018-06-24T04:36:40.193Z,15.67
2018-06-24T04:39:10.317Z,15.62
2018-06-24T04:41:39.519Z,15.64
2018-06-24T04:44:08.475Z,15.69
2018-06-24T04:46:37.573Z,15.57
2018-06-24T04:49:06.107Z,15.83
2018-06-24T04:51:34.744Z,15.83
2018-06-24T04:54:03.527Z,15.93
2018-06-24T04:56:32.075Z,16.02
2018-06-24T04:59:01.266Z,16.12
2018-06-24T05:01:29.832Z,16.20
2018-06-24T05:03:59.271Z,16.26
2018-06-24T05:06:28.700Z,16.20
2018-06-24T05:08:57.230Z,16.20
2018-06-24T05:11:27.527Z,16.25
2018-06-24T05:13:56.473Z,16.33
2018-06-24T05:16:25.046Z,16.40
2018-06-24T05:18:54.040Z,16.44
2018-06-24T05:21:22.704Z,16.50
2018-06-24T05:23:51.197Z,16.58
2018-06-24T05:26:20.014Z,16.38
2018-06-24T05:28:49.012Z,16.57
2018-06-24T05:31:17.799Z,16.61
2018-06-24T05:33:46.899Z,16.61
2018-06-24T05:36:15.379Z,16.65
2018-06-24T05:38:44.013Z,16.66
2018-06-24T05:41:12.642Z,16.68
2018-06-24T05:43:41.177Z,16.72
2018-06-24T05:46:09.781Z,16.81
2018-06-24T05:48:38.346Z,16.88
2018-06-24T05:51:07.669Z,16.92
2018-06-24T05:53:36.246Z,16.84
2018-06-24T05:56:04.863Z,16.81
2018-06-24T05:58:34.245Z,16.83
2018-06-24T06:01:07.098Z,16.88
2018-06-24T06:03:36.108Z,16.91
2018-06-24T06:06:05.651Z,16.92
2018-06-24T06:08:34.397Z,16.82
2018-06-24T06:11:03.086Z,16.97
2018-06-24T06:13:32.531Z,17.13
2018-06-24T06:16:01.311Z,17.18
2018-06-24T06:18:31.618Z,17.40
2018-06-24T06:21:00.878Z,17.40
2018-06-24T06:23:29.473Z,17.40
2018-06-24T06:25:58.666Z,17.36
2018-06-24T06:28:27.427Z,17.48
2018-06-24T06:30:55.948Z,17.57
2018-06-24T06:33:24.499Z,17.72
2018-06-24T06:35:53.091Z,17.87
2018-06-24T06:38:21.976Z,17.85
2018-06-24T06:40:50.465Z,17.93
2018-06-24T06:43:18.982Z,17.78
2018-06-24T06:45:48.269Z,18.26
2018-06-24T06:48:16.958Z,18.23
2018-06-24T06:50:45.487Z,18.39
2018-06-24T06:53:14.113Z,18.65
2018-06-24T06:55:42.696Z,18.43
2018-06-24T06:58:11.267Z,18.09
2018-06-24T07:00:39.841Z,18.29
2018-06-24T07:03:08.377Z,18.41
2018-06-24T07:05:37.632Z,18.62
2018-06-24T07:08:06.326Z,18.63
2018-06-24T07:10:35.241Z,18.47
2018-06-24T07:13:03.844Z,18.14
2018-06-24T07:15:32.704Z,18.62
2018-06-24T07:18:01.614Z,18.90
2018-06-24T07:20:30.106Z,18.93
2018-06-24T07:22:58.673Z,19.17
2018-06-24T07:25:27.165Z,19.43
2018-06-24T07:27:55.702Z,19.69
2018-06-24T07:30:24.317Z,19.67
2018-06-24T07:32:53.044Z,19.78
2018-06-24T07:35:21.667Z,19.91
2018-06-24T07:37:50.349Z,20.04
2018-06-24T07:40:18.896Z,19.94
2018-06-24T07:42:47.490Z,19.84
2018-06-24T07:45:17.191Z,20.07
2018-06-24T07:47:45.680Z,20.12
2018-06-24T07:50:14.300Z,19.98
2018-06-24T07:52:42.830Z,19.95
2018-06-24T07:55:11.381Z,19.90
2018-06-24T07:57:40.974Z,19.94
2018-06-24T08:00:10.697Z,20.17
2018-06-24T08:02:41.010Z,20.25
2018-06-24T08:05:09.465Z,20.23
2018-06-24T08:07:38.016Z,20.24
2018-06-24T08:10:06.548Z,20.23
2018-06-24T08:12:35.689Z,20.33
2018-06-24T08:15:04.944Z,20.42
2018-06-24T08:17:33.488Z,20.60
2018-06-24T08:20:01.903Z,20.63
2018-06-24T08:22:31.054Z,20.55
2018-06-24T08:24:59.857Z,20.43
2018-06-24T08:27:28.396Z,20.83
2018-06-24T08:29:56.987Z,20.94
2018-06-24T08:32:25.488Z,21.28
2018-06-24T08:34:53.997Z,21.03
2018-06-24T08:37:23.084Z,21.12
2018-06-24T08:39:51.644Z,21.16
2018-06-24T08:42:20.229Z,21.16
2018-06-24T08:44:49.484Z,20.74
2018-06-24T08:47:18.345Z,20.96
2018-06-24T08:49:47.357Z,20.88
2018-06-24T08:52:15.926Z,20.88
2018-06-24T08:54:44.520Z,21.08
2018-06-24T08:57:13.066Z,21.38
2018-06-24T08:59:41.550Z,21.42
2018-06-24T09:02:10.284Z,21.58
2018-06-24T09:04:38.799Z,20.91
2018-06-24T09:07:07.376Z,21.39
2018-06-24T09:09:36.059Z,21.59
2018-06-24T09:12:05.257Z,21.79
2018-06-24T09:14:33.794Z,21.62
2018-06-24T09:17:02.629Z,21.22
2018-06-24T09:19:31.220Z,21.52
2018-06-24T09:22:00.044Z,21.88
2018-06-24T09:24:28.572Z,22.25
2018-06-24T09:26:57.290Z,21.98
2018-06-24T09:29:26.209Z,22.27
2018-06-24T09:31:54.842Z,22.38
2018-06-24T09:34:27.336Z,22.15
2018-06-24T09:36:56.623Z,22.75
2018-06-24T09:39:28.148Z,22.35
2018-06-24T09:41:57.407Z,22.70
2018-06-24T09:44:48.031Z,22.61
2018-06-24T09:47:18.701Z,22.59
2018-06-24T09:49:55.596Z,22.66
2018-06-24T09:52:24.996Z,22.86
2018-06-24T09:54:54.190Z,22.50
2018-06-24T09:57:23.544Z,23.00
2018-06-24T09:59:52.261Z,22.98
2018-06-24T10:02:20.865Z,23.50
2018-06-24T10:04:49.791Z,23.58
2018-06-24T10:07:18.631Z,23.55
2018-06-24T10:09:59.092Z,23.60
2018-06-24T10:12:27.976Z,23.70
2018-06-24T10:14:56.720Z,23.40
2018-06-24T10:17:28.045Z,23.28
2018-06-24T10:19:56.782Z,23.24
2018-06-24T10:22:27.590Z,23.75
2018-06-24T10:24:56.505Z,23.66
2018-06-24T10:27:25.388Z,23.15
2018-06-24T10:29:56.184Z,23.64
2018-06-24T10:32:27.719Z,23.77
2018-06-24T10:34:59.458Z,23.66
2018-06-24T10:37:32.453Z,23.79
2018-06-24T10:40:01.595Z,23.59
2018-06-24T10:42:33.170Z,23.70
2018-06-24T10:45:02.702Z,23.65
2018-06-24T10:47:31.381Z,23.93
2018-06-24T10:50:00.838Z,24.03
2018-06-24T10:52:33.420Z,24.00
2018-06-24T10:55:03.775Z,23.77
2018-06-24T10:57:32.684Z,24.16
2018-06-24T11:00:01.452Z,23.94
2018-06-24T11:02:30.710Z,24.28
2018-06-24T11:05:00.553Z,24.27
2018-06-24T11:07:29.349Z,23.99
2018-06-24T11:09:59.324Z,23.97
2018-06-24T11:12:28.071Z,23.95
2018-06-24T11:14:57.473Z,24.17
2018-06-24T11:17:26.531Z,23.92
2018-06-24T11:19:55.185Z,23.98
2018-06-24T11:22:24.961Z,24.14
2018-06-24T11:24:56.243Z,24.29
2018-06-24T11:27:27.395Z,24.33
2018-06-24T11:29:57.034Z,23.86
2018-06-24T11:32:25.888Z,23.93
2018-06-24T11:34:57.564Z,23.87
2018-06-24T11:37:26.991Z,23.81
2018-06-24T11:40:00.031Z,23.85
2018-06-24T11:42:29.713Z,23.24
2018-06-24T11:45:06.794Z,23.28
2018-06-24T11:47:37.362Z,23.21
2018-06-24T11:50:08.237Z,22.97
2018-06-24T11:52:37.096Z,23.01
2018-06-24T11:55:06.852Z,22.94
2018-06-24T11:57:36.684Z,22.85
2018-06-24T12:00:07.158Z,22.43
2018-06-24T12:02:40.052Z,22.51
2018-06-24T12:05:10.472Z,22.92
2018-06-24T12:07:39.069Z,23.01
2018-06-24T12:10:09.413Z,22.97
2018-06-24T12:12:38.399Z,22.85
2018-06-24T12:15:11.240Z,23.02
2018-06-24T12:17:40.295Z,22.66
2018-06-24T12:20:09.547Z,22.70
2018-06-24T12:22:44.595Z,22.52
2018-06-24T12:25:14.042Z,22.79
2018-06-24T12:27:48.186Z,22.98
2018-06-24T12:30:17.957Z,23.11
2018-06-24T12:32:47.348Z,22.81
2018-06-24T12:35:16.710Z,22.77
2018-06-24T12:37:50.065Z,22.86
2018-06-24T12:40:26.968Z,22.70
2018-06-24T12:42:55.567Z,22.75
2018-06-24T12:45:24.888Z,22.22
2018-06-24T12:47:54.309Z,22.48
2018-06-24T12:50:23.187Z,22.56
2018-06-24T12:52:53.472Z,23.23
2018-06-24T12:55:23.428Z,23.65
2018-06-24T12:57:53.110Z,24.43
2018-06-24T13:00:24.810Z,25.59
2018-06-24T13:02:53.546Z,26.26
2018-06-24T13:05:22.236Z,26.59
2018-06-24T13:07:52.530Z,25.88
2018-06-24T13:10:31.081Z,26.28
2018-06-24T13:13:12.838Z,26.15
2018-06-24T13:15:50.989Z,26.14
2018-06-24T13:18:36.923Z,25.45
2018-06-24T13:21:10.490Z,25.30
2018-06-24T13:23:44.664Z,24.83
2018-06-24T13:26:22.713Z,24.90
2018-06-24T13:29:02.812Z,24.79
2018-06-24T13:31:35.475Z,25.54
2018-06-24T13:34:09.271Z,26.51
2018-06-24T13:36:48.166Z,25.94
2018-06-24T13:39:20.271Z,25.61
2018-06-24T13:47:01.931Z,25.68
2018-06-24T13:49:37.113Z,27.30
2018-06-24T13:52:07.591Z,27.30
2018-06-24T13:54:41.947Z,27.87
2018-06-24T13:57:21.181Z,28.42
2018-06-24T13:59:52.710Z,28.51
2018-06-24T14:02:21.998Z,27.93
2018-06-24T14:04:52.431Z,28.94
2018-06-24T14:07:21.192Z,28.11
2018-06-24T14:09:53.381Z,27.43
2018-06-24T14:12:25.505Z,27.28
2018-06-24T14:14:58.731Z,26.20
2018-06-24T14:17:31.214Z,27.04
2018-06-24T14:20:01.705Z,26.56
2018-06-24T14:22:32.886Z,26.63
2018-06-24T14:25:04.200Z,26.67
2018-06-24T14:27:35.301Z,26.79
2018-06-24T14:30:04.273Z,26.68
2018-06-24T14:32:37.759Z,26.05
2018-06-24T14:35:07.074Z,26.24
2018-06-24T14:37:37.627Z,26.60
2018-06-24T14:40:06.226Z,26.33
2018-06-24T14:42:36.409Z,26.42
2018-06-24T14:45:08.838Z,26.48
2018-06-24T14:47:40.846Z,25.91
2018-06-24T14:50:12.603Z,25.61
2018-06-24T14:52:43.057Z,25.47
2018-06-24T14:55:12.958Z,24.97
2018-06-24T14:57:48.079Z,24.96
2018-06-24T15:00:17.478Z,25.14
2018-06-24T15:02:47.145Z,25.16
2018-06-24T15:05:20.539Z,24.95
2018-06-24T15:07:50.510Z,24.86
2018-06-24T15:10:20.658Z,24.90
2018-06-24T15:12:50.193Z,24.74
2018-06-24T15:15:20.811Z,24.49
2018-06-24T15:17:54.328Z,24.49
2018-06-24T15:20:23.220Z,24.46
2018-06-24T15:22:51.860Z,24.22
2018-06-24T15:25:25.129Z,24.40
2018-06-24T15:27:55.529Z,24.28
2018-06-24T15:30:31.071Z,24.16
2018-06-24T15:33:01.805Z,23.77
2018-06-24T15:35:31.699Z,24.15
2018-06-24T15:38:01.622Z,23.98
2018-06-24T15:40:51.313Z,23.15
2018-06-24T15:43:41.859Z,23.98
2018-06-24T15:46:11.849Z,24.23
2018-06-24T15:52:12.740Z,24.34
2018-06-24T15:54:44.147Z,24.18
2018-06-24T15:57:25.437Z,23.54
2018-06-24T16:00:16.664Z,23.95
2018-06-24T16:03:09.097Z,24.00
2018-06-24T16:05:40.561Z,24.10
2018-06-24T16:08:10.968Z,23.73
2018-06-24T16:10:47.778Z,23.55
2018-06-24T16:16:10.065Z,23.78
2018-06-24T16:18:44.837Z,23.82
2018-06-24T16:21:15.262Z,23.72
2018-06-24T16:23:46.500Z,23.53
2018-06-24T16:26:22.117Z,23.45
2018-06-24T16:28:52.286Z,23.64
2018-06-24T16:31:23.583Z,23.72
2018-06-24T16:33:59.387Z,23.81
2018-06-24T16:36:29.012Z,23.85
2018-06-24T16:39:03.365Z,23.41
2018-06-24T16:41:32.092Z,23.32
2018-06-24T16:44:05.099Z,23.62
2018-06-24T16:46:34.629Z,23.57
2018-06-24T16:49:04.790Z,23.16
2018-06-24T16:51:35.249Z,23.20
2018-06-24T16:54:05.692Z,23.04
2018-06-24T16:56:38.741Z,22.87
2018-06-24T16:59:09.761Z,22.79
2018-06-24T17:01:40.193Z,23.18
2018-06-24T17:04:12.308Z,23.05
2018-06-24T17:06:46.097Z,23.13
2018-06-24T17:09:15.797Z,23.20
2018-06-24T17:11:48.081Z,23.36
2018-06-24T17:14:16.735Z,23.41
2018-06-24T17:16:46.444Z,23.37
2018-06-24T17:19:19.773Z,23.27
2018-06-24T17:21:50.233Z,23.15
2018-06-24T17:24:21.517Z,23.02
2018-06-24T17:26:52.937Z,23.18
2018-06-24T17:29:23.112Z,23.09
2018-06-24T17:31:59.010Z,23.29
2018-06-24T17:34:32.031Z,22.86
2018-06-24T17:37:17.540Z,22.93
2018-06-24T17:39:49.084Z,23.10
2018-06-24T17:42:19.074Z,22.52
2018-06-24T17:44:48.168Z,22.73
2018-06-24T17:47:18.982Z,22.78
2018-06-24T17:49:50.648Z,22.88
2018-06-24T17:52:24.302Z,22.80
2018-06-24T17:54:55.959Z,22.64
2018-06-24T17:57:48.354Z,22.27
2018-06-24T18:00:19.493Z,22.48
2018-06-24T18:02:58.548Z,22.54
2018-06-24T18:05:30.617Z,22.70
2018-06-24T18:08:01.208Z,22.58
2018-06-24T18:10:32.562Z,22.36
2018-06-24T18:13:03.304Z,22.25
2018-06-24T18:15:44.778Z,22.38
2018-06-24T18:23:23.559Z,22.43
2018-06-24T18:26:07.535Z,22.32
2018-06-24T18:35:04.657Z,22.04
2018-06-24T18:40:52.825Z,21.99
2018-06-24T18:43:56.387Z,21.94
2018-06-24T18:56:35.172Z,21.65
2018-06-24T18:59:05.261Z,21.77
2018-06-24T19:01:35.009Z,21.91
2018-06-24T19:04:04.551Z,21.72
2018-06-24T19:06:33.787Z,21.40
2018-06-24T19:09:02.584Z,21.43
2018-06-24T19:11:31.421Z,21.29
2018-06-24T19:14:00.625Z,21.25
2018-06-24T19:16:29.569Z,21.34
2018-06-24T19:18:59.160Z,21.53
2018-06-24T19:21:27.949Z,21.64
2018-06-24T19:23:57.060Z,21.57
2018-06-24T19:26:25.786Z,21.57
2018-06-24T19:28:54.500Z,21.57
2018-06-24T19:31:27.626Z,21.64
2018-06-24T19:33:58.113Z,21.70
2018-06-24T19:36:29.958Z,21.53
2018-06-24T19:38:58.932Z,21.55
2018-06-24T19:41:27.718Z,21.64
2018-06-24T19:43:57.098Z,21.52
2018-06-24T19:46:25.735Z,21.51
2018-06-24T19:48:56.452Z,21.58
2018-06-24T19:51:26.006Z,21.50
2018-06-24T19:53:56.440Z,21.42
2018-06-24T19:56:26.107Z,21.44
2018-06-24T19:58:56.120Z,21.06
2018-06-24T20:01:25.634Z,20.92
2018-06-24T20:03:55.034Z,20.98
2018-06-24T20:06:23.608Z,20.78
2018-06-24T20:08:52.122Z,20.99
2018-06-24T20:11:20.674Z,21.12
2018-06-24T20:13:49.464Z,21.04
2018-06-24T20:16:18.380Z,21.05
2018-06-24T20:18:47.095Z,20.93
2018-06-24T20:21:15.931Z,21.07
2018-06-24T20:23:44.461Z,21.11
2018-06-24T20:26:13.387Z,21.05
2018-06-24T20:28:41.992Z,20.86
2018-06-24T20:31:10.466Z,20.88
2018-06-24T20:33:39.023Z,20.50
2018-06-24T20:36:07.926Z,20.74
2018-06-24T20:38:36.749Z,20.78
2018-06-24T20:41:05.320Z,20.69
2018-06-24T20:43:33.877Z,20.79
2018-06-24T20:46:02.481Z,20.69
2018-06-24T20:48:30.993Z,20.60
2018-06-24T20:50:59.511Z,20.45
2018-06-24T20:53:28.271Z,20.73
2018-06-24T20:55:57.754Z,20.35
2018-06-24T20:58:26.343Z,20.59
2018-06-24T21:00:54.847Z,20.76
2018-06-24T21:03:23.947Z,20.50
2018-06-24T21:05:52.652Z,20.73
2018-06-24T21:08:21.189Z,20.62
2018-06-24T21:10:49.773Z,20.70
2018-06-24T21:13:18.346Z,20.71
2018-06-24T21:15:46.997Z,20.66
2018-06-24T21:18:15.586Z,20.31
2018-06-24T21:20:44.043Z,20.53
2018-06-24T21:23:12.620Z,20.30
2018-06-24T21:25:41.170Z,20.13
2018-06-24T21:28:09.720Z,20.25
2018-06-24T21:30:38.377Z,20.26
2018-06-24T21:33:06.962Z,20.25
2018-06-24T21:35:35.607Z,20.39
2018-06-24T21:38:04.072Z,20.32
2018-06-24T21:40:32.773Z,20.37
2018-06-24T21:43:01.235Z,20.17
2018-06-24T21:45:29.724Z,20.15
2018-06-24T21:47:58.292Z,20.09
2018-06-24T21:50:27.000Z,19.84
2018-06-24T21:52:55.849Z,19.83
2018-06-24T21:55:24.361Z,20.07
2018-06-24T21:57:52.896Z,20.15
2018-06-24T22:00:21.508Z,20.06
2018-06-24T22:02:50.885Z,19.95
2018-06-24T22:05:19.519Z,19.92
2018-06-24T22:07:47.981Z,19.57
2018-06-24T22:10:23.329Z,19.77
2018-06-24T22:12:52.875Z,19.75
2018-06-24T22:15:21.410Z,19.78
2018-06-24T22:17:49.945Z,19.82
2018-06-24T22:20:18.490Z,19.69
2018-06-24T22:22:47.086Z,19.62
2018-06-24T22:25:15.692Z,19.42
2018-06-24T22:27:44.375Z,19.38
2018-06-24T22:30:12.917Z,19.57
2018-06-24T22:32:41.381Z,19.52
2018-06-24T22:35:09.913Z,19.36
2018-06-24T22:37:38.487Z,19.30
2018-06-24T22:40:07.033Z,19.30
2018-06-24T22:42:35.594Z,19.21
2018-06-24T22:45:04.116Z,19.39
2018-06-24T22:47:32.613Z,19.32
2018-06-24T22:50:01.142Z,19.22
2018-06-24T22:52:29.615Z,19.41
2018-06-24T22:54:58.328Z,19.22
2018-06-24T22:57:26.923Z,19.36
2018-06-24T23:00:06.179Z,19.15
2018-06-24T23:02:34.608Z,19.22
2018-06-24T23:05:03.050Z,19.20
2018-06-24T23:07:31.521Z,19.36
2018-06-24T23:10:00.741Z,19.45
2018-06-24T23:12:29.233Z,19.39
2018-06-24T23:14:57.875Z,19.25
2018-06-24T23:17:26.449Z,19.37
2018-06-24T23:19:55.870Z,19.19
2018-06-24T23:22:24.375Z,18.94
2018-06-24T23:24:53.700Z,19.16
2018-06-24T23:27:22.502Z,18.93
2018-06-24T23:29:51.816Z,18.97
2018-06-24T23:32:20.540Z,19.00
2018-06-24T23:34:49.013Z,18.92
2018-06-24T23:37:17.562Z,18.79
2018-06-24T23:39:46.022Z,18.85
2018-06-24T23:42:14.661Z,18.73
2018-06-24T23:44:43.554Z,18.80
2018-06-24T23:47:12.027Z,18.52
2018-06-24T23:49:40.557Z,18.59
2018-06-24T23:52:09.178Z,18.65
2018-06-24T23:54:37.690Z,18.80
2018-06-24T23:57:06.280Z,18.67
2018-06-24T23:59:35.446Z,18.77
